createdAt,value
2022-12-04T00:00:49.814Z,11.57
2022-12-04T00:03:54.456Z,12.73
2022-12-04T00:06:59.286Z,10.27
2022-12-04T00:10:03.253Z,12.05
2022-12-04T00:13:06.839Z,11.88
2022-12-04T00:16:13.689Z,12.77
2022-12-04T00:19:17.294Z,13.00
2022-12-04T00:22:21.994Z,11.10
2022-12-04T00:25:25.278Z,11.07
2022-12-04T00:28:28.931Z,11.35
2022-12-04T00:31:32.716Z,13.38
2022-12-04T00:34:36.020Z,12.15
2022-12-04T00:37:40.619Z,12.35
2022-12-04T00:40:50.586Z,11.65
2022-12-04T00:43:53.941Z,11.73
2022-12-04T00:46:57.238Z,12.93
2022-12-04T00:50:00.490Z,12.70
2022-12-04T00:53:05.619Z,12.18
2022-12-04T00:56:11.999Z,12.25
2022-12-04T00:59:15.268Z,13.80
2022-12-04T01:02:18.798Z,13.00
2022-12-04T01:05:23.024Z,12.52
2022-12-04T01:08:27.936Z,13.43
2022-12-04T01:11:32.703Z,13.45
2022-12-04T01:14:38.044Z,10.93
2022-12-04T01:17:41.372Z,13.00
2022-12-04T01:20:48.606Z,12.50
2022-12-04T01:23:54.017Z,11.60
2022-12-04T01:26:57.281Z,11.00
2022-12-04T01:30:00.810Z,12.52
2022-12-04T01:33:04.119Z,11.27
2022-12-04T01:36:09.797Z,12.13
2022-12-04T01:39:14.422Z,13.10
2022-12-04T01:42:18.387Z,11.63
2022-12-04T01:45:47.284Z,14.45
2022-12-04T01:48:53.457Z,11.23
2022-12-04T01:52:00.313Z,12.70
2022-12-04T01:55:05.349Z,13.90
2022-12-04T01:58:10.031Z,13.88
2022-12-04T02:01:13.607Z,11.68
2022-12-04T02:04:16.935Z,13.55
2022-12-04T02:07:20.918Z,10.55
2022-12-04T02:10:36.027Z,12.05
2022-12-04T02:13:48.265Z,11.10
2022-12-04T02:17:00.258Z,12.07
2022-12-04T02:20:26.212Z,12.02
2022-12-04T02:23:47.846Z,10.90
2022-12-04T02:26:59.971Z,12.70
2022-12-04T02:30:07.467Z,11.90
2022-12-04T02:33:20.460Z,11.95
2022-12-04T02:36:28.424Z,11.77
2022-12-04T02:39:37.088Z,11.23
2022-12-04T02:42:43.360Z,12.15
2022-12-04T02:45:54.499Z,12.60
2022-12-04T02:49:03.159Z,11.02
2022-12-04T02:52:11.231Z,11.82
2022-12-04T02:58:26.547Z,12.00
2022-12-04T03:01:35.586Z,11.90
2022-12-04T03:04:41.062Z,9.98
2022-12-04T03:07:50.322Z,10.63
2022-12-04T03:10:57.524Z,11.65
2022-12-04T03:14:09.391Z,12.57
2022-12-04T03:17:18.341Z,11.63
2022-12-04T03:20:23.203Z,13.70
2022-12-04T03:23:32.298Z,11.93
2022-12-04T03:26:39.912Z,12.68
2022-12-04T03:29:47.579Z,12.18
2022-12-04T03:32:57.208Z,12.05
2022-12-04T03:36:09.269Z,11.82
2022-12-04T03:39:19.106Z,13.10
2022-12-04T03:42:26.692Z,12.23
2022-12-04T03:45:37.337Z,9.85
2022-12-04T03:48:46.483Z,10.05
2022-12-04T03:51:56.148Z,13.30
2022-12-04T03:55:03.085Z,10.57
2022-12-04T03:58:12.201Z,12.10
2022-12-04T04:01:19.277Z,13.18
2022-12-04T04:04:29.288Z,11.57
2022-12-04T04:07:37.276Z,12.02
2022-12-04T04:10:41.970Z,13.57
2022-12-04T04:14:12.293Z,11.60
2022-12-04T04:17:39.194Z,12.25
2022-12-04T04:21:09.222Z,11.65
2022-12-04T04:24:23.045Z,13.25
2022-12-04T04:27:26.264Z,12.93
2022-12-04T04:30:33.088Z,9.70
2022-12-04T04:35:01.621Z,15.23
2022-12-04T04:38:11.073Z,11.65
2022-12-04T04:41:20.687Z,11.45
2022-12-04T04:44:30.273Z,12.80
2022-12-04T04:47:38.067Z,10.95
2022-12-04T04:50:43.640Z,9.45
2022-12-04T04:53:49.127Z,12.15
2022-12-04T04:56:52.988Z,12.68
2022-12-04T04:59:56.940Z,11.80
2022-12-04T05:03:00.953Z,11.60
2022-12-04T05:06:06.322Z,10.48
2022-12-04T05:09:09.578Z,9.05
2022-12-04T05:12:12.960Z,9.95
2022-12-04T05:15:16.542Z,10.65
2022-12-04T05:18:19.896Z,10.32
2022-12-04T05:21:23.567Z,11.10
2022-12-04T05:24:26.997Z,9.50
2022-12-04T05:27:31.568Z,9.50
2022-12-04T05:30:35.676Z,11.55
2022-12-04T05:33:38.975Z,11.23
2022-12-04T05:36:43.598Z,10.60
2022-12-04T05:39:46.997Z,10.43
2022-12-04T05:42:50.249Z,11.63
2022-12-04T05:45:53.914Z,10.85
2022-12-04T05:48:58.618Z,9.57
2022-12-04T05:52:06.419Z,10.52
2022-12-04T05:55:09.941Z,10.35
2022-12-04T05:58:13.325Z,10.13
2022-12-04T06:01:18.837Z,10.50
2022-12-04T06:04:22.238Z,11.63
2022-12-04T06:07:27.852Z,9.68
2022-12-04T06:10:31.617Z,11.23
2022-12-04T06:13:34.818Z,11.75
2022-12-04T06:16:41.106Z,10.02
2022-12-04T06:19:44.660Z,10.27
2022-12-04T06:22:49.222Z,9.07
2022-12-04T06:25:52.421Z,10.18
2022-12-04T06:28:56.878Z,11.18
2022-12-04T06:32:00.477Z,10.68
2022-12-04T06:35:04.242Z,11.18
2022-12-04T06:38:10.228Z,10.48
2022-12-04T06:41:15.837Z,11.25
2022-12-04T06:44:19.453Z,10.07
2022-12-04T06:47:23.019Z,10.70
2022-12-04T06:50:26.301Z,9.80
2022-12-04T06:53:32.497Z,11.02
2022-12-04T06:56:36.073Z,10.43
2022-12-04T06:59:39.453Z,12.10
2022-12-04T07:02:43.022Z,11.70
2022-12-04T07:05:46.535Z,10.10
2022-12-04T07:08:53.380Z,15.25
2022-12-04T07:11:56.646Z,11.20
2022-12-04T07:15:00.094Z,10.55
2022-12-04T07:18:06.109Z,11.40
2022-12-04T07:21:11.809Z,9.95
2022-12-04T07:24:18.156Z,10.27
2022-12-04T07:27:21.390Z,12.70
2022-12-04T07:30:24.718Z,13.27
2022-12-04T07:33:27.966Z,15.60
2022-12-04T07:36:31.294Z,12.80
2022-12-04T07:39:36.282Z,15.25
2022-12-04T07:42:39.685Z,13.88
2022-12-04T07:45:43.022Z,11.57
2022-12-04T07:48:47.526Z,12.40
2022-12-04T07:51:50.800Z,14.10
2022-12-04T07:54:55.581Z,13.38
2022-12-04T07:57:58.970Z,11.50
2022-12-04T08:01:09.993Z,10.88
2022-12-04T08:04:13.645Z,12.90
2022-12-04T08:07:17.010Z,11.48
2022-12-04T08:10:21.770Z,25.52
2022-12-04T08:13:25.306Z,10.77
2022-12-04T08:16:30.149Z,20.15
2022-12-04T08:19:33.489Z,34.67
2022-12-04T08:22:36.879Z,20.55
2022-12-04T08:25:42.129Z,15.00
2022-12-04T08:28:46.188Z,18.50
2022-12-04T08:31:52.890Z,12.50
2022-12-04T08:34:56.843Z,34.30
2022-12-04T08:38:00.291Z,12.25
2022-12-04T08:41:06.706Z,13.48
2022-12-04T08:44:10.640Z,13.25
2022-12-04T08:47:14.964Z,84.93
2022-12-04T08:50:18.428Z,49.97
2022-12-04T08:53:23.940Z,11.68
2022-12-04T08:56:30.053Z,10.80
2022-12-04T08:59:33.902Z,11.82
2022-12-04T09:02:37.153Z,12.35
2022-12-04T09:05:41.560Z,11.43
2022-12-04T09:08:45.095Z,9.98
2022-12-04T09:11:49.800Z,10.50
2022-12-04T09:14:53.138Z,13.40
2022-12-04T09:17:56.456Z,14.02
2022-12-04T09:21:01.628Z,11.02
2022-12-04T09:24:05.343Z,13.02
2022-12-04T09:27:14.659Z,10.85
2022-12-04T09:30:18.551Z,9.98
2022-12-04T09:33:21.790Z,10.80
2022-12-04T09:36:25.058Z,10.82
2022-12-04T09:39:28.327Z,10.07
2022-12-04T09:46:07.823Z,12.27
2022-12-04T09:49:15.433Z,13.63
2022-12-04T09:52:31.924Z,10.85
2022-12-04T09:55:38.504Z,9.13
2022-12-04T09:58:48.015Z,11.48
2022-12-04T10:01:59.772Z,17.23
2022-12-04T10:05:03.673Z,9.85
2022-12-04T10:08:18.061Z,8.93
2022-12-04T10:11:31.999Z,9.10
2022-12-04T10:14:52.192Z,9.10
2022-12-04T10:18:11.134Z,9.52
2022-12-04T10:21:28.195Z,9.35
2022-12-04T10:24:42.963Z,10.07
2022-12-04T10:27:50.934Z,8.57
2022-12-04T10:34:57.904Z,8.98
2022-12-04T10:38:05.854Z,9.38
2022-12-04T10:44:21.422Z,8.95
2022-12-04T10:47:26.337Z,9.88
2022-12-04T10:50:30.942Z,9.02
2022-12-04T10:53:38.139Z,9.40
2022-12-04T10:56:52.107Z,9.07
2022-12-04T10:59:57.784Z,8.07
2022-12-04T11:03:03.261Z,8.38
2022-12-04T11:06:11.320Z,8.45
2022-12-04T11:12:25.998Z,8.55
2022-12-04T11:15:30.015Z,8.77
2022-12-04T11:18:35.519Z,8.63
2022-12-04T11:21:40.347Z,9.10
2022-12-04T11:24:50.630Z,8.15
2022-12-04T11:27:56.750Z,8.15
2022-12-04T11:31:03.021Z,9.07
2022-12-04T11:34:09.408Z,8.93
2022-12-04T11:37:22.384Z,8.23
2022-12-04T11:40:27.706Z,8.70
2022-12-04T11:43:34.222Z,8.07
2022-12-04T11:46:38.072Z,9.55
2022-12-04T11:49:43.956Z,8.93
2022-12-04T11:53:02.723Z,8.20
2022-12-04T11:59:41.403Z,8.90
2022-12-04T12:03:04.157Z,8.75
2022-12-04T12:06:19.909Z,9.85
2022-12-04T12:09:31.324Z,11.38
2022-12-04T12:12:45.864Z,8.70
2022-12-04T12:15:58.775Z,13.68
2022-12-04T12:19:18.720Z,11.45
2022-12-04T12:22:48.379Z,11.43
2022-12-04T12:26:02.307Z,11.38
2022-12-04T12:29:22.018Z,26.08
2022-12-04T12:32:54.409Z,13.38
2022-12-04T12:36:04.400Z,9.65
2022-12-04T12:39:16.082Z,11.35
2022-12-04T12:42:26.149Z,8.98
2022-12-04T12:45:36.934Z,26.90
2022-12-04T12:48:47.301Z,21.10
2022-12-04T12:51:55.852Z,9.65
2022-12-04T12:55:03.693Z,14.98
2022-12-04T13:01:20.762Z,13.45
2022-12-04T13:04:32.872Z,10.20
2022-12-04T13:07:46.753Z,9.80
2022-12-04T13:10:54.880Z,9.05
2022-12-04T13:17:07.187Z,9.10
2022-12-04T13:20:19.871Z,9.80
2022-12-04T13:23:40.474Z,9.57
2022-12-04T13:26:52.146Z,9.80
2022-12-04T13:30:17.084Z,10.40
2022-12-04T13:33:51.286Z,8.65
2022-12-04T13:37:36.137Z,9.23
2022-12-04T13:40:42.053Z,12.45
2022-12-04T13:43:50.286Z,8.95
2022-12-04T13:46:58.313Z,9.68
2022-12-04T13:50:28.353Z,9.35
2022-12-04T13:53:33.920Z,11.25
2022-12-04T13:56:37.390Z,14.20
2022-12-04T13:59:41.809Z,8.88
2022-12-04T14:02:52.520Z,9.82
2022-12-04T14:05:56.954Z,10.38
2022-12-04T14:09:03.681Z,10.00
2022-12-04T14:12:11.708Z,12.00
2022-12-04T14:15:23.221Z,12.40
2022-12-04T14:18:30.401Z,12.20
2022-12-04T14:21:41.125Z,11.70
2022-12-04T14:24:44.496Z,11.40
2022-12-04T14:27:51.808Z,11.80
2022-12-04T14:31:15.864Z,11.40
2022-12-04T14:34:29.251Z,10.75
2022-12-04T14:37:37.508Z,11.23
2022-12-04T14:40:46.361Z,10.50
2022-12-04T14:43:50.343Z,14.02
2022-12-04T14:46:56.425Z,11.93
2022-12-04T14:50:15.092Z,11.45
2022-12-04T14:53:31.511Z,11.98
2022-12-04T14:56:48.337Z,9.90
2022-12-04T14:59:53.966Z,19.55
2022-12-04T15:03:00.790Z,12.07
2022-12-04T15:06:09.938Z,12.13
2022-12-04T15:09:37.304Z,11.50
2022-12-04T15:12:45.852Z,11.15
2022-12-04T15:15:53.577Z,10.20
2022-12-04T15:18:57.822Z,11.80
2022-12-04T15:22:10.098Z,11.48
2022-12-04T15:25:19.520Z,11.52
2022-12-04T15:31:32.510Z,15.93
2022-12-04T15:34:39.788Z,12.38
2022-12-04T15:37:44.954Z,11.15
2022-12-04T15:40:53.895Z,13.38
2022-12-04T15:43:57.713Z,12.40
2022-12-04T15:47:03.254Z,11.82
2022-12-04T15:50:12.327Z,11.85
2022-12-04T15:53:22.490Z,15.40
2022-12-04T15:56:26.205Z,14.20
2022-12-04T15:59:32.259Z,11.73
2022-12-04T16:02:38.602Z,12.50
2022-12-04T16:05:42.248Z,11.60
2022-12-04T16:08:52.377Z,11.00
2022-12-04T16:12:01.219Z,12.82
2022-12-04T16:15:05.463Z,13.25
2022-12-04T16:18:15.676Z,12.02
2022-12-04T16:21:27.380Z,11.75
2022-12-04T16:24:32.492Z,12.23
2022-12-04T16:27:58.275Z,13.57
2022-12-04T16:34:59.209Z,12.98
2022-12-04T16:38:07.005Z,16.20
2022-12-04T16:41:32.944Z,33.85
2022-12-04T16:44:42.937Z,22.67
2022-12-04T16:47:53.012Z,13.98
2022-12-04T16:51:12.948Z,13.30
2022-12-04T16:54:20.068Z,14.40
2022-12-04T16:57:29.883Z,13.30
2022-12-04T17:00:45.278Z,12.18
2022-12-04T17:03:59.976Z,12.63
2022-12-04T17:07:13.902Z,13.00
2022-12-04T17:10:24.515Z,13.75
2022-12-04T17:13:40.958Z,15.38
2022-12-04T17:16:54.944Z,13.18
2022-12-04T17:20:18.428Z,12.38
2022-12-04T17:23:31.636Z,12.98
2022-12-04T17:26:40.570Z,13.50
2022-12-04T17:30:07.266Z,13.60
2022-12-04T17:33:17.438Z,13.38
2022-12-04T17:36:37.748Z,14.63
2022-12-04T17:39:48.085Z,14.80
2022-12-04T17:43:02.214Z,12.15
2022-12-04T17:46:13.106Z,14.88
2022-12-04T17:49:27.617Z,17.45
2022-12-04T17:52:33.276Z,16.00
2022-12-04T17:55:46.867Z,19.25
2022-12-04T17:59:09.844Z,17.65
2022-12-04T18:02:14.864Z,17.48
2022-12-04T18:05:18.098Z,21.35
2022-12-04T18:08:24.133Z,20.92
2022-12-04T18:11:31.342Z,18.08
2022-12-04T18:14:35.407Z,21.20
2022-12-04T18:17:41.332Z,19.65
2022-12-04T18:20:44.667Z,22.50
2022-12-04T18:23:50.547Z,17.10
2022-12-04T18:27:05.307Z,24.95
2022-12-04T18:30:13.519Z,18.50
2022-12-04T18:33:19.064Z,22.55
2022-12-04T18:36:26.321Z,26.10
2022-12-04T18:39:29.732Z,24.42
2022-12-04T18:42:41.745Z,19.17
2022-12-04T18:45:51.512Z,21.25
2022-12-04T18:49:03.473Z,24.33
2022-12-04T18:52:11.991Z,21.05
2022-12-04T18:55:28.413Z,18.38
2022-12-04T18:58:40.553Z,18.98
2022-12-04T19:01:55.262Z,26.17
2022-12-04T19:05:13.515Z,18.23
2022-12-04T19:08:19.938Z,18.25
2022-12-04T19:11:24.012Z,19.73
2022-12-04T19:14:29.691Z,16.85
2022-12-04T19:20:44.700Z,21.23
2022-12-04T19:23:53.851Z,19.85
2022-12-04T19:27:26.027Z,18.13
2022-12-04T19:30:34.571Z,17.90
2022-12-04T19:33:38.327Z,18.40
2022-12-04T19:36:42.621Z,58.22
2022-12-04T19:39:48.832Z,21.13
2022-12-04T19:43:01.159Z,18.35
2022-12-04T19:46:12.825Z,17.30
2022-12-04T19:49:16.467Z,16.73
2022-12-04T19:52:21.948Z,20.30
2022-12-04T19:55:31.449Z,21.02
2022-12-04T19:58:35.758Z,18.40
2022-12-04T20:01:46.200Z,20.48
2022-12-04T20:04:52.681Z,19.58
2022-12-04T20:11:05.127Z,20.27
2022-12-04T20:14:10.454Z,21.38
2022-12-04T20:17:16.703Z,20.88
2022-12-04T20:20:20.740Z,23.00
2022-12-04T20:23:41.155Z,18.45
2022-12-04T20:26:46.271Z,21.52
2022-12-04T20:29:51.797Z,20.88
2022-12-04T20:32:59.868Z,21.27
2022-12-04T20:36:03.449Z,20.92
2022-12-04T20:39:08.008Z,23.50
2022-12-04T20:42:12.052Z,21.67
2022-12-04T20:45:15.499Z,20.38
2022-12-04T20:48:43.024Z,22.85
2022-12-04T20:51:49.302Z,23.88
2022-12-04T20:54:55.192Z,23.27
2022-12-04T20:57:58.903Z,22.45
2022-12-04T21:01:07.108Z,31.70
2022-12-04T21:04:13.067Z,28.58
2022-12-04T21:07:18.623Z,31.80
2022-12-04T21:10:22.465Z,29.80
2022-12-04T21:13:45.565Z,33.53
2022-12-04T21:16:50.291Z,30.95
2022-12-04T21:19:56.627Z,29.05
2022-12-04T21:23:00.988Z,28.02
2022-12-04T21:26:04.878Z,25.48
2022-12-04T21:29:09.225Z,25.30
2022-12-04T21:32:12.511Z,23.52
2022-12-04T21:35:17.260Z,23.80
2022-12-04T21:38:20.671Z,23.52
2022-12-04T21:41:41.949Z,24.67
2022-12-04T21:44:45.192Z,23.23
2022-12-04T21:47:49.375Z,24.08
2022-12-04T21:50:54.878Z,24.25
2022-12-04T21:53:58.335Z,24.25
2022-12-04T21:57:01.826Z,24.25
2022-12-04T22:00:06.141Z,23.17
2022-12-04T22:03:09.406Z,23.88
2022-12-04T22:06:14.424Z,23.35
2022-12-04T22:09:18.762Z,24.10
2022-12-04T22:15:46.892Z,25.40
2022-12-04T22:18:50.273Z,25.42
2022-12-04T22:21:54.864Z,24.90
2022-12-04T22:25:01.480Z,27.67
2022-12-04T22:28:06.401Z,25.75
2022-12-04T22:34:53.546Z,25.02
2022-12-04T22:37:56.724Z,26.65
2022-12-04T22:41:01.245Z,24.95
2022-12-04T22:44:05.040Z,27.63
2022-12-04T22:47:08.791Z,24.10
2022-12-04T22:50:13.719Z,26.50
2022-12-04T22:53:16.893Z,26.02
2022-12-04T22:56:21.974Z,26.42
2022-12-04T22:59:25.572Z,24.58
2022-12-04T23:02:29.049Z,26.45
2022-12-04T23:05:35.515Z,27.23
2022-12-04T23:08:40.273Z,27.23
2022-12-04T23:11:44.259Z,27.95
2022-12-04T23:14:47.529Z,27.92
2022-12-04T23:17:51.096Z,29.52
2022-12-04T23:21:03.175Z,28.20
2022-12-04T23:24:07.226Z,30.08
2022-12-04T23:27:10.564Z,32.60
2022-12-04T23:30:14.129Z,34.47
2022-12-04T23:33:17.484Z,37.60
2022-12-04T23:36:22.765Z,38.75
2022-12-04T23:39:26.430Z,39.90
2022-12-04T23:42:31.786Z,42.67
2022-12-04T23:45:35.403Z,43.85
2022-12-04T23:48:39.229Z,40.88
2022-12-04T23:51:43.893Z,41.50
2022-12-04T23:54:50.656Z,39.25
2022-12-04T23:57:55.294Z,32.17
